createdAt,value
2023-01-20T08:50:46.334Z,37.40
2023-01-20T08:53:18.090Z,45.70
2023-01-20T08:55:58.876Z,45.00
2023-01-20T08:58:31.408Z,55.00
2023-01-20T09:01:08.718Z,54.00
2023-01-20T09:03:42.082Z,49.80
2023-01-20T09:06:17.303Z,54.50
2023-01-20T09:08:49.196Z,54.50
2023-01-20T09:11:24.375Z,46.70
2023-01-20T09:13:57.667Z,50.30
2023-01-20T09:16:29.383Z,44.10
2023-01-20T09:19:01.073Z,44.80
2023-01-20T09:21:32.775Z,43.00
2023-01-20T09:24:04.705Z,41.20
2023-01-20T09:26:41.668Z,42.40
2023-01-20T09:29:15.919Z,39.80
2023-01-20T09:31:52.458Z,44.10
2023-01-20T09:34:25.396Z,43.50
2023-01-20T09:37:18.980Z,41.00
2023-01-20T09:40:08.146Z,44.40
2023-01-20T09:43:08.566Z,46.90
2023-01-20T09:45:44.867Z,46.60
2023-01-20T09:48:51.714Z,43.80
2023-01-20T09:51:50.242Z,40.20
2023-01-20T09:54:27.127Z,45.40
2023-01-20T09:57:01.364Z,37.60
2023-01-20T09:59:42.145Z,43.70
2023-01-20T10:02:19.718Z,37.80
2023-01-20T10:04:58.283Z,41.30
2023-01-20T10:07:38.565Z,44.00
2023-01-20T10:10:17.506Z,47.20
2023-01-20T10:12:54.921Z,37.90
2023-01-20T10:15:30.821Z,40.40
2023-01-20T10:18:09.242Z,43.20
2023-01-20T10:20:48.067Z,32.40
2023-01-20T10:23:29.293Z,35.50
2023-01-20T10:26:09.424Z,34.80
2023-01-20T10:28:45.187Z,37.10
2023-01-20T10:31:23.298Z,38.60
2023-01-20T10:33:58.117Z,35.70
2023-01-20T10:36:31.678Z,33.30
2023-01-20T10:41:40.332Z,31.00
2023-01-20T10:44:14.991Z,32.60
2023-01-20T10:46:59.047Z,38.30
2023-01-20T10:49:56.720Z,34.40
2023-01-20T10:52:41.243Z,32.90
2023-01-20T10:55:25.109Z,34.20
2023-01-20T11:00:32.458Z,33.50
2023-01-20T11:03:06.139Z,39.30
2023-01-20T11:05:41.216Z,34.10
2023-01-20T11:08:18.499Z,42.10
2023-01-20T11:10:54.047Z,42.20
2023-01-20T11:13:25.908Z,42.10
2023-01-20T11:16:02.332Z,36.00
2023-01-20T11:18:34.829Z,42.90
2023-01-20T11:21:09.205Z,45.90
2023-01-20T11:23:43.314Z,51.80
2023-01-20T11:26:26.958Z,34.90
2023-01-20T11:29:02.628Z,34.20
2023-01-20T11:31:40.899Z,39.60
2023-01-20T11:34:25.907Z,39.80
2023-01-20T11:37:27.486Z,44.50
2023-01-20T11:40:16.560Z,42.00
2023-01-20T11:42:50.423Z,35.60
2023-01-20T11:45:34.614Z,42.20
2023-01-20T11:48:18.673Z,44.50
2023-01-20T11:50:56.135Z,33.20
2023-01-20T11:53:31.519Z,37.20
2023-01-20T11:56:06.272Z,42.00
2023-01-20T11:58:54.765Z,35.30
2023-01-20T12:01:28.400Z,31.40
2023-01-20T12:06:59.187Z,29.30
2023-01-20T12:09:37.364Z,30.20
2023-01-20T12:12:15.716Z,33.10
2023-01-20T12:14:51.386Z,35.90
2023-01-20T12:17:37.942Z,34.90
2023-01-20T12:20:16.391Z,99.00
2023-01-20T12:23:01.970Z,46.00
2023-01-20T12:25:37.926Z,58.20
2023-01-20T12:28:15.176Z,46.30
2023-01-20T12:30:54.069Z,43.70
2023-01-20T12:33:29.648Z,47.20
2023-01-20T12:36:36.993Z,36.80
2023-01-20T12:39:36.111Z,32.10
2023-01-20T12:42:37.200Z,30.90
2023-01-20T12:45:21.915Z,31.50
2023-01-20T12:48:06.025Z,32.20
2023-01-20T12:50:53.228Z,41.60
2023-01-20T12:53:43.371Z,39.00
2023-01-20T12:56:26.007Z,36.10
2023-01-20T12:59:05.399Z,39.10
2023-01-20T13:01:50.861Z,38.00
2023-01-20T13:05:05.817Z,33.50
2023-01-20T13:07:56.037Z,33.30
2023-01-20T13:10:45.113Z,37.90
2023-01-20T13:13:36.792Z,36.50
2023-01-20T13:16:23.574Z,43.50
2023-01-20T13:19:06.389Z,39.60
2023-01-20T13:21:38.094Z,39.60
2023-01-20T13:24:19.052Z,38.10
2023-01-20T13:26:52.097Z,38.80
2023-01-20T13:29:41.092Z,42.90
2023-01-20T13:32:33.632Z,45.40
2023-01-20T13:35:45.451Z,44.30
2023-01-20T13:38:27.711Z,44.40
2023-01-20T13:41:03.288Z,48.50
2023-01-20T13:43:53.040Z,47.60
2023-01-20T13:46:47.606Z,48.70
2023-01-20T13:49:45.513Z,45.50
2023-01-20T13:52:37.328Z,62.10
2023-01-20T13:55:30.151Z,46.40
2023-01-20T13:58:01.913Z,59.60
2023-01-20T14:00:33.643Z,56.90
2023-01-20T14:03:21.143Z,46.70
2023-01-20T14:05:54.683Z,108.10
2023-01-20T14:11:11.380Z,69.60
2023-01-20T14:13:44.401Z,74.10
2023-01-20T14:16:25.848Z,67.40
2023-01-20T14:19:01.379Z,99.70
2023-01-20T14:21:40.631Z,82.60
2023-01-20T14:24:29.565Z,84.00
2023-01-20T14:27:16.199Z,81.60
2023-01-20T14:29:49.482Z,151.70
2023-01-20T14:32:24.471Z,134.20
2023-01-20T14:34:57.686Z,154.50
2023-01-20T14:37:32.271Z,64.10
2023-01-20T14:40:20.141Z,98.20
2023-01-20T14:42:59.359Z,50.00
2023-01-20T14:45:33.357Z,49.00
2023-01-20T14:48:06.071Z,66.50
2023-01-20T14:50:38.510Z,160.90
2023-01-20T14:53:15.062Z,94.20
2023-01-20T14:56:01.125Z,47.70
2023-01-20T14:58:33.867Z,33.00
2023-01-20T15:01:07.407Z,29.20
2023-01-20T15:06:23.946Z,43.20
2023-01-20T15:09:06.524Z,49.60
2023-01-20T15:11:39.240Z,43.10
2023-01-20T15:14:13.272Z,38.30
2023-01-20T15:16:49.284Z,42.60
2023-01-20T15:19:31.556Z,30.50
2023-01-20T15:22:22.241Z,33.10
2023-01-20T15:24:55.587Z,26.10
2023-01-20T15:27:31.333Z,33.00
2023-01-20T15:30:19.607Z,34.10
2023-01-20T15:32:52.701Z,39.70
2023-01-20T15:35:26.853Z,35.90
2023-01-20T15:37:58.915Z,35.90
2023-01-20T15:40:30.642Z,35.90
2023-01-20T15:43:02.348Z,30.80
2023-01-20T15:45:34.060Z,32.00
2023-01-20T15:48:13.099Z,32.90
2023-01-20T15:50:45.028Z,30.70
2023-01-20T15:53:17.269Z,39.90
2023-01-20T15:55:53.157Z,35.30
2023-01-20T15:58:27.640Z,34.80
2023-01-20T16:01:00.733Z,34.70
2023-01-20T16:03:35.435Z,33.30
2023-01-20T16:06:14.308Z,37.60
2023-01-20T16:08:47.775Z,39.50
2023-01-20T16:11:20.746Z,36.00
2023-01-20T16:13:52.653Z,34.50
2023-01-20T16:16:27.400Z,36.20
2023-01-20T16:19:01.382Z,34.20
2023-01-20T16:21:33.132Z,36.10
2023-01-20T16:24:05.819Z,31.20
2023-01-20T16:26:37.789Z,34.80
2023-01-20T16:29:11.619Z,38.40
2023-01-20T16:31:43.432Z,38.70
2023-01-20T16:34:15.232Z,37.40
2023-01-20T16:36:47.024Z,41.50
2023-01-20T16:39:18.722Z,40.30
2023-01-20T16:41:51.045Z,41.80
2023-01-20T16:44:22.793Z,37.30
2023-01-20T16:46:54.590Z,40.60
2023-01-20T16:49:26.327Z,41.00
2023-01-20T16:51:58.081Z,43.90
2023-01-20T16:54:29.795Z,36.30
2023-01-20T16:57:01.570Z,41.10
2023-01-20T16:59:33.336Z,45.00
2023-01-20T17:02:05.194Z,41.40
2023-01-20T17:04:37.714Z,39.20
2023-01-20T17:07:09.498Z,47.80
2023-01-20T17:09:41.367Z,38.60
2023-01-20T17:12:13.171Z,46.00
2023-01-20T17:14:45.002Z,44.80
2023-01-20T17:17:16.875Z,41.60
2023-01-20T17:19:48.640Z,44.80
2023-01-20T17:22:20.500Z,41.40
2023-01-20T17:24:52.274Z,49.10
2023-01-20T17:27:24.007Z,43.70
2023-01-20T17:29:55.739Z,42.40
2023-01-20T17:32:27.511Z,44.40
2023-01-20T17:34:59.207Z,42.40
2023-01-20T17:37:31.175Z,39.60
2023-01-20T17:40:03.001Z,43.90
2023-01-20T17:42:34.850Z,37.80
2023-01-20T17:45:07.564Z,43.90
2023-01-20T17:47:39.312Z,40.50
2023-01-20T17:50:12.214Z,37.20
2023-01-20T17:52:44.225Z,34.30
2023-01-20T17:55:16.492Z,37.20
2023-01-20T17:57:50.476Z,44.30
2023-01-20T18:00:23.439Z,37.00
2023-01-20T18:02:57.807Z,34.50
2023-01-20T18:05:30.907Z,35.80
2023-01-20T18:08:02.690Z,43.10
2023-01-20T18:10:34.436Z,39.60
2023-01-20T18:13:06.184Z,37.60
2023-01-20T18:15:42.666Z,34.10
2023-01-20T18:18:14.564Z,31.10
2023-01-20T18:20:46.403Z,26.80
2023-01-20T18:23:18.172Z,29.70
2023-01-20T18:25:56.557Z,28.90
2023-01-20T18:28:28.249Z,32.60
2023-01-20T18:31:08.064Z,34.00
2023-01-20T18:33:44.254Z,29.30
2023-01-20T18:36:18.697Z,32.20
2023-01-20T18:38:54.086Z,31.60
2023-01-20T18:41:26.944Z,31.50
2023-01-20T18:43:59.282Z,30.70
2023-01-20T18:46:31.487Z,38.50
2023-01-20T18:49:05.125Z,29.70
2023-01-20T18:51:37.236Z,29.80
2023-01-20T18:54:12.097Z,30.80
2023-01-20T18:56:44.466Z,34.20
2023-01-20T18:59:16.292Z,32.00
2023-01-20T19:01:48.444Z,32.80
2023-01-20T19:04:20.174Z,30.60
2023-01-20T19:06:51.902Z,36.70
2023-01-20T19:09:23.636Z,32.60
2023-01-20T19:11:55.543Z,29.20
2023-01-20T19:14:27.709Z,26.70
2023-01-20T19:16:59.523Z,28.30
2023-01-20T19:19:31.336Z,32.30
2023-01-20T19:22:03.054Z,32.00
2023-01-20T19:24:35.151Z,42.00
2023-01-20T19:27:08.115Z,41.00
2023-01-20T19:29:41.435Z,34.40
2023-01-20T19:32:13.435Z,29.30
2023-01-20T19:34:45.617Z,28.70
2023-01-20T19:37:17.465Z,31.50
2023-01-20T19:39:50.224Z,31.50
2023-01-20T19:42:25.510Z,31.00
2023-01-20T19:44:57.597Z,30.80
2023-01-20T19:47:31.364Z,28.10
2023-01-20T19:50:03.275Z,30.10
2023-01-20T19:52:35.151Z,28.20
2023-01-20T19:55:07.442Z,29.70
2023-01-20T19:57:39.161Z,26.10
2023-01-20T20:00:13.568Z,29.80
2023-01-20T20:02:45.664Z,26.70
2023-01-20T20:05:19.106Z,27.20
2023-01-20T20:07:51.110Z,27.80
2023-01-20T20:10:22.808Z,29.20
2023-01-20T20:12:54.529Z,26.60
2023-01-20T20:15:26.356Z,26.90
2023-01-20T20:17:58.341Z,25.60
2023-01-20T20:20:30.315Z,25.50
2023-01-20T20:23:02.345Z,30.50
2023-01-20T20:25:34.698Z,28.70
2023-01-20T20:28:06.970Z,27.30
2023-01-20T20:30:42.140Z,30.10
2023-01-20T20:33:14.392Z,28.40
2023-01-20T20:35:46.335Z,27.10
2023-01-20T20:38:18.922Z,29.50
2023-01-20T20:40:51.194Z,25.90
2023-01-20T20:43:24.985Z,27.80
2023-01-20T20:45:59.966Z,24.90
2023-01-20T20:48:33.350Z,26.40
2023-01-20T20:51:09.803Z,26.20
2023-01-20T20:53:42.254Z,24.30
2023-01-20T20:56:16.026Z,24.90
2023-01-20T20:59:00.407Z,23.80
2023-01-20T21:01:34.526Z,26.00
2023-01-20T21:04:06.557Z,26.20
2023-01-20T21:06:38.383Z,28.50
2023-01-20T21:09:11.024Z,29.80
2023-01-20T21:11:43.277Z,29.00
2023-01-20T21:14:15.242Z,27.60
2023-01-20T21:16:46.975Z,26.30
2023-01-20T21:19:18.766Z,25.70
2023-01-20T21:21:50.519Z,28.20
2023-01-20T21:24:40.666Z,25.00
2023-01-20T21:27:12.477Z,22.50
2023-01-20T21:29:44.417Z,24.90
2023-01-20T21:32:16.296Z,23.20
2023-01-20T21:34:48.156Z,27.10
2023-01-20T21:37:20.592Z,22.30
2023-01-20T21:39:52.353Z,27.40
2023-01-20T21:42:24.159Z,24.60
2023-01-20T21:44:55.931Z,24.30
2023-01-20T21:47:27.668Z,25.20
2023-01-20T21:50:16.791Z,25.70
2023-01-20T21:52:49.605Z,25.50
2023-01-20T21:55:24.055Z,27.40
2023-01-20T21:57:56.449Z,28.70
2023-01-20T22:00:29.703Z,22.90
2023-01-20T22:03:01.510Z,24.10
2023-01-20T22:05:33.288Z,25.80
2023-01-20T22:08:05.870Z,22.70
2023-01-20T22:10:37.588Z,22.70
2023-01-20T22:13:09.425Z,24.30
2023-01-20T22:15:41.178Z,25.30
2023-01-20T22:18:12.976Z,24.80
2023-01-20T22:20:44.771Z,21.50
2023-01-20T22:23:16.565Z,27.70
2023-01-20T22:25:48.332Z,21.50
2023-01-20T22:28:20.148Z,38.90
2023-01-20T22:30:51.899Z,22.30
2023-01-20T22:33:23.940Z,21.10
2023-01-20T22:35:58.122Z,19.50
2023-01-20T22:38:30.148Z,16.80
2023-01-20T22:41:06.976Z,14.40
2023-01-20T22:43:40.943Z,15.30
2023-01-20T22:46:14.254Z,16.70
2023-01-20T22:51:18.497Z,14.20
2023-01-20T22:53:50.870Z,15.30
2023-01-20T22:56:24.494Z,12.00
2023-01-20T22:58:56.568Z,16.30
2023-01-20T23:01:29.970Z,14.30
2023-01-20T23:04:02.817Z,15.40
2023-01-20T23:06:36.165Z,15.30
2023-01-20T23:09:10.396Z,12.10
2023-01-20T23:11:43.053Z,14.60
2023-01-20T23:14:14.837Z,14.60
2023-01-20T23:16:46.700Z,12.40
2023-01-20T23:19:18.541Z,12.10
2023-01-20T23:21:50.286Z,13.00
2023-01-20T23:24:22.296Z,14.20
2023-01-20T23:26:53.978Z,11.80
2023-01-20T23:29:25.706Z,10.40
2023-01-20T23:31:57.427Z,10.20
2023-01-20T23:34:29.400Z,10.20
2023-01-20T23:37:01.146Z,11.00
2023-01-20T23:39:32.917Z,11.10
2023-01-20T23:42:04.669Z,11.40
2023-01-20T23:44:36.389Z,9.20
2023-01-20T23:47:10.301Z,8.70
2023-01-20T23:49:42.009Z,9.20
2023-01-20T23:52:13.808Z,9.40
2023-01-20T23:54:45.515Z,6.80
2023-01-20T23:57:17.211Z,10.70
2023-01-20T23:59:49.114Z,7.80
